Time;durP1;ratioP1;P1;durP2;ratioP2;P2;SDS_P1;SDS_P2;PMS_P1;PMS_P2;Temp;Humidity;BMP_temperature;BMP_pressure;BME280_temperature;BME280_humidity;BME280_pressure;Samples;Min_cycle;Max_cycle;Signal;HPM_P1;HPM_P2
2023/03/23 00:00:06;;;;;;;0.47;0.47;;;10.30;99.90;;;;;;5096574;28;19958;-83
2023/03/23 00:02:38;;;;;;;0.70;0.70;;;10.30;99.90;;;;;;5114790;28;20051;-82
2023/03/23 00:05:07;;;;;;;0.88;0.32;;;10.30;99.90;;;;;;5081705;28;20505;-81
2023/03/23 00:07:34;;;;;;;0.38;0.32;;;10.30;99.90;;;;;;5096476;28;20049;-81
2023/03/23 00:10:02;;;;;;;1.33;0.88;;;10.40;99.90;;;;;;5113059;28;20122;-81
2023/03/23 00:12:33;;;;;;;2.10;0.85;;;10.40;99.90;;;;;;5115046;28;20059;-81
2023/03/23 00:15:12;;;;;;;0.60;0.60;;;10.40;99.90;;;;;;5112650;28;20059;-81
2023/03/23 00:17:40;;;;;;;0.50;0.50;;;10.40;99.90;;;;;;5113354;28;20134;-88
2023/03/23 00:20:06;;;;;;;1.33;1.05;;;10.40;99.90;;;;;;5096181;28;20058;-82
2023/03/23 00:22:37;;;;;;;1.10;0.68;;;10.40;99.90;;;;;;5096331;28;20185;-82
2023/03/23 00:25:06;;;;;;;1.73;1.30;;;10.40;99.90;;;;;;5079115;28;20191;-82
2023/03/23 00:27:31;;;;;;;0.95;0.85;;;10.40;99.90;;;;;;5095586;28;20120;-82
2023/03/23 00:29:57;;;;;;;0.93;0.93;;;10.50;99.90;;;;;;5112776;28;20603;-81
2023/03/23 00:32:28;;;;;;;0.60;0.50;;;10.40;99.90;;;;;;5112950;28;20047;-82
2023/03/23 00:34:58;;;;;;;2.08;1.17;;;10.40;99.90;;;;;;5113226;28;20044;-82
2023/03/23 00:37:25;;;;;;;1.50;0.98;;;10.40;99.90;;;;;;5130338;27;20043;-82
2023/03/23 00:39:51;;;;;;;1.05;0.98;;;10.40;99.90;;;;;;5113254;28;20122;-82
2023/03/23 00:42:17;;;;;;;1.15;0.65;;;10.40;99.90;;;;;;5112742;28;20043;-82
2023/03/23 00:44:43;;;;;;;0.73;0.28;;;10.40;99.90;;;;;;5111728;28;20048;-83
2023/03/23 00:47:11;;;;;;;1.85;0.98;;;10.40;99.90;;;;;;5113687;28;20486;-81
2023/03/23 00:49:37;;;;;;;0.43;0.38;;;10.40;99.90;;;;;;5113282;28;20078;-81
2023/03/23 00:52:05;;;;;;;0.40;0.30;;;10.40;99.90;;;;;;5113192;28;20126;-82
2023/03/23 00:54:31;;;;;;;1.42;0.88;;;10.40;99.90;;;;;;5094847;28;20051;-83
2023/03/23 00:56:57;;;;;;;1.08;0.70;;;10.40;99.90;;;;;;5111700;28;20047;-82
2023/03/23 00:59:23;;;;;;;1.10;0.67;;;10.40;99.90;;;;;;5095401;28;20035;-82
2023/03/23 01:01:49;;;;;;;0.60;0.43;;;10.40;99.90;;;;;;5095152;28;20083;-82
2023/03/23 01:04:15;;;;;;;1.38;1.27;;;10.40;99.90;;;;;;5113621;28;20082;-82
2023/03/23 01:06:43;;;;;;;0.88;0.57;;;10.40;99.90;;;;;;5113310;28;20047;-83
2023/03/23 01:09:14;;;;;;;0.88;0.82;;;10.40;99.90;;;;;;5094661;28;20040;-86
2023/03/23 01:11:41;;;;;;;0.52;0.52;;;10.40;99.90;;;;;;5112245;28;20484;-82
2023/03/23 01:14:08;;;;;;;0.85;0.60;;;10.50;99.90;;;;;;5094800;28;20108;-82
2023/03/23 01:16:33;;;;;;;1.15;0.77;;;10.50;99.90;;;;;;5113980;28;20456;-82
2023/03/23 01:18:59;;;;;;;1.97;0.60;;;10.50;99.90;;;;;;5112338;28;20134;-82
2023/03/23 01:21:25;;;;;;;0.87;0.50;;;10.40;99.90;;;;;;5113554;28;20044;-82
2023/03/23 01:23:51;;;;;;;0.53;0.50;;;10.50;99.90;;;;;;5094651;28;20317;-82
2023/03/23 01:26:23;;;;;;;0.68;0.68;;;10.50;99.90;;;;;;5078307;28;20063;-82
2023/03/23 01:28:49;;;;;;;1.00;0.80;;;10.50;99.90;;;;;;5078246;28;20055;-82
2023/03/23 01:31:20;;;;;;;0.25;0.25;;;10.50;99.90;;;;;;5113426;28;20118;-82
2023/03/23 01:33:47;;;;;;;1.08;0.50;;;10.40;99.90;;;;;;5113621;28;20051;-88
2023/03/23 01:36:17;;;;;;;0.68;0.40;;;10.50;99.90;;;;;;5111877;28;20478;-82
2023/03/23 01:38:45;;;;;;;0.63;0.63;;;10.50;99.90;;;;;;5095513;28;20047;-81
2023/03/23 01:41:12;;;;;;;0.90;0.43;;;10.50;99.90;;;;;;5112521;28;20043;-83
2023/03/23 01:43:53;;;;;;;;;;;10.40;99.90;;;;;;5113228;28;20505;-87
2023/03/23 01:46:22;;;;;;;0.13;0.13;;;10.40;99.90;;;;;;5094744;28;19919;-82
2023/03/23 01:48:50;;;;;;;0.57;0.52;;;10.40;99.90;;;;;;5094740;28;20050;-87
2023/03/23 01:51:18;;;;;;;1.35;0.50;;;10.40;99.90;;;;;;5112883;28;20052;-84
2023/03/23 01:53:59;;;;;;;0.43;0.40;;;10.40;99.90;;;;;;5111235;28;20058;-82
2023/03/23 01:56:32;;;;;;;0.50;0.50;;;10.40;99.90;;;;;;5111254;28;20131;-82
2023/03/23 01:58:59;;;;;;;0.30;0.30;;;10.40;99.90;;;;;;5112229;28;20091;-85
2023/03/23 02:01:25;;;;;;;0.10;0.10;;;10.40;99.90;;;;;;5112710;28;20044;-86
2023/03/23 02:03:54;;;;;;;0.52;0.40;;;10.50;99.90;;;;;;5111297;28;20051;-88
2023/03/23 02:06:21;;;;;;;0.55;0.28;;;10.50;99.90;;;;;;5097320;28;20096;-82
2023/03/23 02:08:49;;;;;;;0.28;0.28;;;10.50;99.90;;;;;;5116256;28;20040;-82
2023/03/23 02:11:17;;;;;;;0.20;0.20;;;10.50;99.90;;;;;;5116764;28;20058;-82
2023/03/23 02:13:44;;;;;;;0.28;0.28;;;10.50;99.90;;;;;;5116025;28;20047;-82
2023/03/23 02:16:22;;;;;;;;;;;10.50;99.90;;;;;;5116514;28;20054;-82
2023/03/23 02:19:29;;;;;;;1.63;0.30;;;10.50;99.90;;;;;;5115822;28;20013;-82
2023/03/23 02:22:12;;;;;;;0.50;0.50;;;10.50;99.90;;;;;;5084052;28;20598;-84
2023/03/23 02:25:05;;;;;;;0.75;0.20;;;10.40;99.90;;;;;;5115874;28;20112;-82
2023/03/23 02:27:47;;;;;;;0.65;0.50;;;10.40;99.90;;;;;;5114956;28;20050;-82
2023/03/23 02:30:39;;;;;;;0.50;0.47;;;10.40;99.90;;;;;;5080831;28;20082;-83
2023/03/23 02:33:35;;;;;;;0.90;0.50;;;10.40;99.90;;;;;;5115004;28;20505;-82
2023/03/23 02:36:28;;;;;;;0.40;0.40;;;10.40;99.90;;;;;;5115030;28;20501;-82
2023/03/23 02:39:36;;;;;;;0.88;0.50;;;10.40;99.90;;;;;;5115120;28;20132;-83
2023/03/23 02:42:10;;;;;;;1.17;0.55;;;10.40;99.90;;;;;;5106086;28;20095;-82
2023/03/23 02:44:43;;;;;;;0.43;0.40;;;10.40;99.90;;;;;;5114875;28;20048;-82
2023/03/23 02:47:14;;;;;;;0.65;0.25;;;10.50;99.90;;;;;;5114410;28;20043;-82
2023/03/23 02:49:42;;;;;;;0.43;0.28;;;10.40;99.90;;;;;;5114344;28;20040;-82
2023/03/23 02:52:14;;;;;;;0.57;0.40;;;10.40;99.90;;;;;;5114779;28;20054;-82
2023/03/23 02:54:49;;;;;;;0.52;0.40;;;10.40;99.90;;;;;;5114648;28;20055;-82
2023/03/23 02:57:16;;;;;;;0.45;0.45;;;10.40;99.90;;;;;;5115859;28;20189;-82
2023/03/23 02:59:41;;;;;;;0.40;0.40;;;10.50;99.90;;;;;;5081122;28;20050;-82
2023/03/23 03:02:15;;;;;;;0.50;0.50;;;10.40;99.90;;;;;;5115687;28;20039;-82
2023/03/23 03:04:55;;;;;;;0.30;0.30;;;10.40;99.90;;;;;;5115531;28;20493;-83
2023/03/23 03:07:48;;;;;;;0.50;0.50;;;10.40;99.90;;;;;;5115211;28;20043;-83
2023/03/23 03:10:34;;;;;;;0.38;0.38;;;10.40;99.90;;;;;;5113803;28;20106;-82
2023/03/23 03:13:23;;;;;;;0.40;0.40;;;10.40;99.90;;;;;;5114816;28;20134;-87
2023/03/23 03:16:07;;;;;;;0.15;0.15;;;10.40;99.90;;;;;;5097323;28;20051;-82
2023/03/23 03:18:42;;;;;;;0.30;0.30;;;10.40;99.90;;;;;;5097982;28;20398;-82
2023/03/23 03:21:12;;;;;;;0.65;0.25;;;10.40;99.90;;;;;;5097589;28;20448;-82
2023/03/23 03:23:41;;;;;;;1.05;0.65;;;10.40;99.90;;;;;;5098054;28;20126;-82
2023/03/23 03:26:10;;;;;;;0.75;0.30;;;10.40;99.90;;;;;;5096488;28;20056;-83
2023/03/23 03:28:36;;;;;;;0.30;0.30;;;10.40;99.90;;;;;;5114853;28;20039;-82
2023/03/23 03:31:06;;;;;;;1.15;0.63;;;10.40;99.90;;;;;;5115059;28;20061;-89
2023/03/23 03:33:33;;;;;;;0.52;0.45;;;10.40;99.90;;;;;;5097330;28;20040;-82
2023/03/23 03:36:06;;;;;;;0.57;0.20;;;10.40;99.90;;;;;;5097046;28;20044;-82
2023/03/23 03:38:44;;;;;;;0.22;0.22;;;10.40;99.90;;;;;;5096876;28;20414;-82
2023/03/23 03:41:10;;;;;;;0.20;0.20;;;10.40;99.90;;;;;;5096836;28;20039;-83
2023/03/23 03:43:36;;;;;;;0.28;0.20;;;10.40;99.90;;;;;;5096747;28;20039;-83
2023/03/23 03:46:03;;;;;;;0.50;0.30;;;10.50;99.90;;;;;;5115097;28;20047;-87
2023/03/23 03:48:28;;;;;;;0.40;0.40;;;10.40;99.90;;;;;;5114501;28;20116;-83
2023/03/23 03:50:56;;;;;;;0.73;0.40;;;10.50;99.90;;;;;;5096560;28;20482;-84
2023/03/23 03:53:23;;;;;;;1.02;0.73;;;10.50;99.90;;;;;;5095438;28;20047;-84
2023/03/23 03:55:49;;;;;;;0.73;0.40;;;10.40;99.90;;;;;;5096665;28;20051;-82
2023/03/23 03:58:16;;;;;;;0.32;0.30;;;10.40;99.90;;;;;;5096420;28;20047;-82
2023/03/23 04:00:42;;;;;;;0.65;0.65;;;10.30;99.90;;;;;;5114600;28;20044;-82
2023/03/23 04:03:08;;;;;;;0.57;0.30;;;10.30;99.90;;;;;;5096294;28;20043;-83
2023/03/23 04:05:37;;;;;;;0.50;0.47;;;10.30;99.90;;;;;;5114286;28;20440;-82
2023/03/23 04:08:03;;;;;;;0.43;0.20;;;10.30;99.90;;;;;;5096710;28;20044;-82
2023/03/23 04:10:30;;;;;;;0.63;0.45;;;10.30;99.90;;;;;;5114054;28;20039;-82
2023/03/23 04:12:56;;;;;;;0.70;0.60;;;10.30;99.90;;;;;;5096683;28;20058;-82
2023/03/23 04:15:22;;;;;;;0.70;0.50;;;10.30;99.90;;;;;;5095540;28;20062;-83
2023/03/23 04:17:48;;;;;;;0.20;0.20;;;10.30;99.90;;;;;;5114176;28;20505;-82
2023/03/23 04:20:17;;;;;;;0.30;0.30;;;10.30;99.90;;;;;;5078745;28;20058;-83
2023/03/23 04:22:44;;;;;;;0.20;0.20;;;10.30;99.90;;;;;;5113355;28;20044;-82
2023/03/23 04:25:12;;;;;;;1.20;0.68;;;10.30;99.90;;;;;;5077986;28;20075;-86
2023/03/23 04:27:42;;;;;;;1.15;0.60;;;10.40;99.90;;;;;;5095539;28;20117;-82
2023/03/23 04:30:10;;;;;;;0.77;0.68;;;10.40;99.90;;;;;;5062810;28;20044;-87
2023/03/23 04:32:35;;;;;;;0.30;0.30;;;10.40;99.90;;;;;;5113961;28;20097;-83
2023/03/23 04:35:01;;;;;;;1.03;0.37;;;10.50;99.90;;;;;;5112593;28;20044;-83
2023/03/23 04:37:28;;;;;;;0.63;0.47;;;10.50;99.90;;;;;;5108394;28;20086;-85
2023/03/23 04:40:00;;;;;;;;;;;10.50;99.90;;;;;;5105144;28;20104;-82
2023/03/23 04:42:31;;;;;;;0.50;0.45;;;10.50;99.90;;;;;;5112366;28;19966;-82
2023/03/23 04:44:59;;;;;;;0.68;0.68;;;10.40;99.90;;;;;;5097026;28;20055;-83
2023/03/23 04:47:29;;;;;;;1.27;0.50;;;10.40;99.90;;;;;;5111637;28;20408;-83
2023/03/23 04:49:58;;;;;;;0.40;0.40;;;10.40;99.90;;;;;;5096275;28;20052;-82
2023/03/23 04:52:28;;;;;;;0.40;0.40;;;10.30;99.90;;;;;;5111930;28;20506;-83
2023/03/23 04:54:55;;;;;;;0.10;0.10;;;10.30;99.90;;;;;;5104205;28;20094;-81
2023/03/23 04:57:27;;;;;;;0.43;0.40;;;10.20;99.90;;;;;;5095208;28;20079;-81
2023/03/23 04:59:53;;;;;;;0.10;0.10;;;10.10;99.90;;;;;;5112137;28;20056;-83
2023/03/23 05:02:19;;;;;;;0.07;0.07;;;9.90;99.90;;;;;;5111668;28;20059;-81
2023/03/23 05:04:45;;;;;;;0.57;0.23;;;9.80;99.90;;;;;;5112393;28;20556;-81
2023/03/23 05:07:11;;;;;;;0.10;0.10;;;9.70;99.90;;;;;;5112162;28;20089;-86
2023/03/23 05:09:37;;;;;;;4.50;0.40;;;9.60;99.90;;;;;;5113007;28;20050;-81
2023/03/23 05:12:07;;;;;;;1.20;0.27;;;9.60;99.90;;;;;;5095630;28;20048;-82
2023/03/23 05:14:32;;;;;;;0.10;0.10;;;9.50;99.90;;;;;;5112667;28;20048;-82
2023/03/23 05:16:58;;;;;;;0.00;0.00;;;9.50;99.90;;;;;;5113714;28;20052;-82
2023/03/23 05:19:24;;;;;;;0.10;0.10;;;9.50;99.90;;;;;;5111486;28;20136;-82
2023/03/23 05:21:49;;;;;;;0.30;0.30;;;9.40;99.90;;;;;;5112337;28;20039;-81
2023/03/23 05:24:15;;;;;;;2.27;0.20;;;9.40;99.90;;;;;;5113025;28;20054;-87
2023/03/23 05:26:41;;;;;;;0.00;0.00;;;9.40;99.90;;;;;;5095054;28;20142;-82
2023/03/23 05:29:07;;;;;;;0.10;0.00;;;9.30;99.90;;;;;;5112626;28;20051;-82
2023/03/23 05:31:32;;;;;;;0.37;0.10;;;9.30;99.90;;;;;;5112740;28;20126;-82
2023/03/23 05:33:58;;;;;;;0.17;0.10;;;9.20;99.90;;;;;;5112125;28;20477;-82
2023/03/23 05:36:24;;;;;;;0.00;0.00;;;9.20;99.90;;;;;;5094768;28;20079;-82
2023/03/23 05:38:53;;;;;;;0.07;0.07;;;9.20;99.90;;;;;;5094918;28;20051;-82
2023/03/23 05:41:18;;;;;;;0.05;0.05;;;9.20;99.90;;;;;;5111646;28;20438;-87
2023/03/23 05:43:44;;;;;;;0.20;0.20;;;8.70;99.90;;;;;;5111791;28;20131;-82
2023/03/23 05:46:10;;;;;;;0.20;0.20;;;9.20;99.90;;;;;;5094756;28;20062;-84
2023/03/23 05:48:36;;;;;;;0.13;0.10;;;9.20;99.90;;;;;;5112750;28;20040;-82
2023/03/23 05:51:02;;;;;;;0.10;0.10;;;9.20;99.90;;;;;;5112571;28;20039;-82
2023/03/23 05:53:30;;;;;;;0.20;0.10;;;9.30;99.90;;;;;;5110985;28;20486;-82
2023/03/23 05:56:03;;;;;;;0.10;0.10;;;9.40;99.90;;;;;;5095074;28;20047;-82
2023/03/23 05:58:29;;;;;;;0.00;0.00;;;9.40;99.90;;;;;;5111313;28;20130;-82
2023/03/23 06:00:55;;;;;;;0.10;0.10;;;9.50;99.90;;;;;;5111955;28;20079;-82
2023/03/23 06:03:22;;;;;;;1.13;0.37;;;9.50;99.90;;;;;;5094905;28;20085;-88
2023/03/23 06:05:48;;;;;;;0.20;0.20;;;9.50;99.90;;;;;;5094652;28;20055;-82
2023/03/23 06:08:14;;;;;;;0.43;0.32;;;9.50;99.90;;;;;;5112546;28;20090;-82
2023/03/23 06:10:40;;;;;;;0.22;0.13;;;9.50;99.90;;;;;;5111015;28;20086;-85
2023/03/23 06:13:05;;;;;;;0.10;0.10;;;9.60;99.90;;;;;;5112614;28;20036;-82
2023/03/23 06:15:32;;;;;;;0.00;0.00;;;9.60;99.90;;;;;;5110888;28;20113;-82
2023/03/23 06:18:05;;;;;;;0.32;0.25;;;9.60;99.90;;;;;;5111017;28;20490;-82
2023/03/23 06:20:31;;;;;;;0.00;0.00;;;9.60;99.90;;;;;;5111179;28;20371;-82
2023/03/23 06:22:57;;;;;;;0.10;0.10;;;9.60;99.90;;;;;;5112886;28;20058;-82
2023/03/23 06:25:24;;;;;;;0.10;0.10;;;9.60;99.90;;;;;;5094647;28;20047;-86
2023/03/23 06:27:51;;;;;;;0.00;0.00;;;9.60;99.90;;;;;;5110518;28;20055;-82
2023/03/23 06:30:18;;;;;;;0.20;0.20;;;9.60;99.90;;;;;;5112685;28;20054;-82
2023/03/23 06:32:46;;;;;;;0.30;0.20;;;9.70;99.90;;;;;;5112185;28;20043;-82
2023/03/23 06:35:15;;;;;;;0.75;0.28;;;9.70;99.90;;;;;;5110799;28;20485;-82
2023/03/23 06:37:41;;;;;;;0.20;0.20;;;9.40;99.90;;;;;;5110735;28;20153;-83
2023/03/23 06:40:08;;;;;;;0.55;0.20;;;9.70;99.90;;;;;;5094085;28;20519;-82
2023/03/23 06:42:33;;;;;;;0.47;0.30;;;9.70;99.90;;;;;;5111762;28;20059;-82
2023/03/23 06:45:00;;;;;;;0.20;0.20;;;9.70;99.90;;;;;;5111560;28;20051;-82
2023/03/23 06:47:35;;;;;;;1.50;0.20;;;9.80;99.90;;;;;;5094590;28;20070;-87
2023/03/23 06:50:01;;;;;;;0.30;0.20;;;9.80;99.90;;;;;;5111002;28;20039;-82
2023/03/23 06:52:27;;;;;;;0.57;0.57;;;9.80;99.90;;;;;;5115557;28;20066;-87
2023/03/23 06:54:53;;;;;;;0.00;0.00;;;9.80;99.90;;;;;;5097085;28;20122;-83
2023/03/23 06:57:20;;;;;;;0.20;0.10;;;9.80;99.90;;;;;;5114555;28;20101;-83
2023/03/23 06:59:46;;;;;;;0.63;0.20;;;9.90;99.90;;;;;;5114373;28;20410;-82
2023/03/23 07:02:13;;;;;;;1.40;0.28;;;9.90;99.90;;;;;;5097829;28;20048;-85
2023/03/23 07:04:40;;;;;;;0.70;0.10;;;9.90;99.90;;;;;;5098062;28;20043;-82
2023/03/23 07:07:08;;;;;;;0.10;0.10;;;9.90;99.90;;;;;;5113200;28;20043;-85
2023/03/23 07:09:33;;;;;;;0.10;0.00;;;10.00;99.90;;;;;;5114353;28;20039;-86
2023/03/23 07:11:59;;;;;;;0.10;0.07;;;10.00;99.90;;;;;;5097915;28;20048;-86
2023/03/23 07:14:26;;;;;;;0.30;0.13;;;10.00;99.90;;;;;;5080588;28;20054;-87
2023/03/23 07:16:51;;;;;;;;;;;10.10;99.90;;;;;;5080810;28;20153;-85
2023/03/23 07:19:17;;;;;;;0.08;0.00;;;10.10;99.90;;;;;;5098190;28;20025;-86
2023/03/23 07:21:43;;;;;;;0.83;0.33;;;10.10;99.90;;;;;;5080965;28;20055;-88
2023/03/23 07:24:13;;;;;;;0.37;0.37;;;10.10;99.90;;;;;;5081071;28;20063;-82
2023/03/23 07:26:41;;;;;;;0.40;0.30;;;10.10;99.90;;;;;;5115437;28;20048;-83
2023/03/23 07:29:07;;;;;;;0.20;0.10;;;10.20;99.90;;;;;;5115308;28;20078;-83
2023/03/23 07:31:33;;;;;;;0.43;0.32;;;10.20;99.90;;;;;;5115204;28;20031;-83
2023/03/23 07:33:59;;;;;;;0.30;0.30;;;10.30;99.90;;;;;;5115197;28;20131;-84
2023/03/23 07:36:26;;;;;;;0.83;0.07;;;10.30;99.90;;;;;;5114616;28;20079;-83
2023/03/23 07:38:51;;;;;;;;;;;10.40;99.90;;;;;;5097300;28;20126;-83
2023/03/23 07:41:17;;;;;;;0.47;0.20;;;10.60;99.90;;;;;;5114278;28;19959;-83
2023/03/23 07:43:43;;;;;;;0.10;0.00;;;10.60;99.90;;;;;;5097339;28;20035;-83
2023/03/23 07:46:08;;;;;;;0.30;0.03;;;10.70;99.90;;;;;;5097243;28;20036;-84
2023/03/23 07:48:34;;;;;;;0.10;0.10;;;10.80;99.90;;;;;;5097206;28;20367;-88
2023/03/23 07:51:00;;;;;;;0.20;0.20;;;10.90;99.90;;;;;;5096795;28;20050;-82
2023/03/23 07:53:26;;;;;;;1.03;0.67;;;10.90;99.90;;;;;;5113752;28;20474;-83
2023/03/23 07:55:53;;;;;;;0.10;0.10;;;10.80;99.90;;;;;;5113448;28;20043;-84
2023/03/23 07:58:20;;;;;;;0.63;0.20;;;10.90;99.90;;;;;;5113364;28;20119;-83
2023/03/23 08:00:48;;;;;;;0.30;0.30;;;10.90;99.90;;;;;;5079930;28;20048;-83
2023/03/23 08:03:15;;;;;;;4.20;0.45;;;11.00;99.90;;;;;;5095818;28;20040;-84
2023/03/23 08:05:42;;;;;;;1.75;0.13;;;10.90;99.90;;;;;;5096468;28;20105;-84
2023/03/23 08:08:09;;;;;;;0.00;0.00;;;10.90;99.90;;;;;;5096687;28;20525;-83
2023/03/23 08:10:35;;;;;;;0.00;0.00;;;10.90;99.90;;;;;;5113496;28;20505;-83
2023/03/23 08:13:01;;;;;;;1.65;0.20;;;10.80;99.90;;;;;;5096554;28;20044;-83
2023/03/23 08:15:28;;;;;;;0.10;0.10;;;10.80;99.90;;;;;;5096225;28;20056;-84
2023/03/23 08:17:54;;;;;;;0.30;0.30;;;10.80;99.90;;;;;;5095854;28;20494;-84
2023/03/23 08:20:25;;;;;;;0.30;0.30;;;10.80;99.90;;;;;;5096559;28;20051;-84
2023/03/23 08:22:55;;;;;;;0.32;0.20;;;10.80;99.90;;;;;;5095978;28;20482;-84
2023/03/23 08:25:24;;;;;;;0.10;0.10;;;10.80;99.90;;;;;;5096463;28;20086;-84
2023/03/23 08:27:49;;;;;;;0.03;0.03;;;10.80;99.90;;;;;;5079099;28;20485;-84
2023/03/23 08:30:20;;;;;;;0.37;0.37;;;10.80;99.90;;;;;;5095914;28;20096;-85
2023/03/23 08:32:47;;;;;;;0.10;0.10;;;10.90;99.90;;;;;;5095931;28;20497;-86
2023/03/23 08:35:14;;;;;;;0.50;0.43;;;10.90;99.90;;;;;;5079255;28;20371;-83
2023/03/23 08:37:41;;;;;;;0.82;0.82;;;10.90;99.90;;;;;;5079151;28;20401;-89
2023/03/23 08:40:09;;;;;;;;;;;10.90;99.90;;;;;;5096327;28;20059;-83
2023/03/23 08:42:39;;;;;;;0.75;0.28;;;10.90;99.90;;;;;;5095973;28;19920;-83
2023/03/23 08:45:09;;;;;;;0.77;0.70;;;10.90;99.90;;;;;;5095598;28;20047;-83
2023/03/23 08:47:37;;;;;;;0.10;0.10;;;10.90;99.90;;;;;;5079267;28;20044;-84
2023/03/23 08:50:05;;;;;;;1.05;0.22;;;11.00;99.90;;;;;;5078606;28;20032;-83
2023/03/23 08:52:31;;;;;;;0.40;0.00;;;11.00;99.90;;;;;;5096018;28;20089;-84
2023/03/23 08:54:57;;;;;;;1.88;0.50;;;11.10;99.90;;;;;;5112502;28;20095;-82
2023/03/23 08:57:25;;;;;;;0.60;0.38;;;11.40;99.90;;;;;;5096056;28;20446;-83
2023/03/23 08:59:51;;;;;;;1.45;0.30;;;11.50;99.90;;;;;;5113285;28;20105;-86
2023/03/23 09:02:17;;;;;;;0.75;0.35;;;11.50;99.90;;;;;;5095425;28;20048;-83
2023/03/23 09:04:43;;;;;;;2.15;0.10;;;11.50;99.90;;;;;;5095929;28;20052;-84
2023/03/23 09:07:11;;;;;;;0.20;0.20;;;11.40;99.90;;;;;;5112494;28;20044;-85
2023/03/23 09:09:41;;;;;;;0.30;0.30;;;11.40;99.90;;;;;;5096115;28;20047;-82
2023/03/23 09:12:08;;;;;;;0.15;0.10;;;11.30;99.90;;;;;;5095668;28;20135;-83
2023/03/23 09:14:35;;;;;;;0.38;0.10;;;11.10;99.90;;;;;;5113575;28;20048;-83
2023/03/23 09:17:02;;;;;;;0.35;0.10;;;11.10;99.90;;;;;;5113714;28;20051;-83
2023/03/23 09:19:29;;;;;;;0.10;0.10;;;11.20;99.90;;;;;;5095912;28;20058;-83
2023/03/23 09:21:55;;;;;;;1.90;0.22;;;11.50;99.90;;;;;;5095456;28;20043;-83
2023/03/23 09:24:20;;;;;;;0.00;0.00;;;11.70;99.90;;;;;;5114182;28;20090;-83
2023/03/23 09:26:47;;;;;;;0.65;0.22;;;11.90;99.90;;;;;;5079062;28;20393;-84
2023/03/23 09:29:13;;;;;;;0.55;0.17;;;12.20;99.90;;;;;;5112494;28;20039;-83
2023/03/23 09:31:42;;;;;;;0.17;0.13;;;12.50;99.90;;;;;;5079186;28;20495;-83
2023/03/23 09:34:11;;;;;;;0.15;0.10;;;12.70;99.90;;;;;;5095534;28;20285;-83
2023/03/23 09:36:38;;;;;;;1.42;0.40;;;12.90;99.90;;;;;;5095573;28;20051;-84
2023/03/23 09:39:07;;;;;;;0.05;0.05;;;13.00;99.90;;;;;;5095230;28;20047;-84
2023/03/23 09:42:18;;;;;;;0.10;0.10;;;13.00;99.90;;;;;;5112332;28;20039;-87
2023/03/23 09:44:46;;;;;;;1.08;0.32;;;13.10;99.90;;;;;;5036942;28;20052;-83
2023/03/23 09:47:38;;;;;;;0.20;0.10;;;13.30;99.90;;;;;;5053174;28;20048;-84
2023/03/23 09:50:14;;;;;;;0.30;0.17;;;13.30;99.90;;;;;;5082241;28;20094;-84
2023/03/23 09:52:50;;;;;;;0.33;0.20;;;13.30;99.90;;;;;;5095327;28;20043;-84
2023/03/23 09:55:18;;;;;;;0.32;0.20;;;13.50;99.90;;;;;;5095336;28;20282;-84
2023/03/23 09:57:56;;;;;;;0.40;0.40;;;13.70;99.90;;;;;;5077925;28;20048;-87
2023/03/23 10:00:36;;;;;;;0.20;0.20;;;14.00;99.90;;;;;;5112951;28;20508;-84
2023/03/23 10:03:17;;;;;;;0.00;0.00;;;14.00;99.90;;;;;;5112746;28;20044;-84
2023/03/23 10:05:49;;;;;;;0.20;0.20;;;14.20;99.90;;;;;;5078176;28;20053;-84
2023/03/23 10:08:18;;;;;;;0.55;0.10;;;14.30;99.90;;;;;;5094812;28;20145;-83
2023/03/23 10:11:11;;;;;;;0.50;0.28;;;14.40;99.90;;;;;;5094770;28;20129;-83
2023/03/23 10:13:37;;;;;;;0.00;0.00;;;14.30;99.90;;;;;;5094867;28;20039;-87
2023/03/23 10:16:29;;;;;;;0.10;0.10;;;14.30;99.90;;;;;;5077107;28;20056;-86
2023/03/23 10:18:58;;;;;;;0.00;0.00;;;14.30;99.90;;;;;;5074394;28;20056;-86
2023/03/23 10:21:26;;;;;;;1.30;0.10;;;14.40;99.90;;;;;;5094569;28;20039;-84
2023/03/23 10:24:04;;;;;;;0.20;0.10;;;14.50;99.90;;;;;;5112565;28;20055;-87
2023/03/23 10:27:00;;;;;;;1.30;0.63;;;14.60;99.90;;;;;;5096407;28;20047;-86
2023/03/23 10:29:51;;;;;;;0.10;0.10;;;14.70;99.90;;;;;;5081434;28;20036;-87
2023/03/23 10:32:40;;;;;;;0.45;0.32;;;14.70;99.90;;;;;;5081755;28;20043;-87
2023/03/23 10:35:11;;;;;;;0.10;0.10;;;14.80;99.90;;;;;;5098984;28;20488;-87
2023/03/23 10:37:46;;;;;;;1.55;0.20;;;14.80;99.90;;;;;;5101411;28;20047;-85
2023/03/23 10:40:19;;;;;;;0.13;0.08;;;14.80;99.90;;;;;;5098228;28;20078;-86
2023/03/23 10:42:46;;;;;;;1.35;0.20;;;14.90;99.90;;;;;;5098326;28;20560;-89
2023/03/23 10:45:26;;;;;;;;;;;15.00;99.90;;;;;;5098501;28;20071;-89
2023/03/23 10:48:11;;;;;;;0.20;0.20;;;15.10;99.90;;;;;;5098547;28;20447;-87
2023/03/23 10:50:38;;;;;;;1.27;0.30;;;15.00;99.90;;;;;;5098143;28;20477;-86
2023/03/23 10:53:24;;;;;;;0.10;0.10;;;15.10;99.90;;;;;;5081212;28;20531;-85
2023/03/23 10:55:52;;;;;;;0.20;0.20;;;15.20;99.90;;;;;;5097499;28;20070;-86
2023/03/23 10:58:45;;;;;;;0.17;0.10;;;15.20;99.90;;;;;;5080916;28;20445;-86
2023/03/23 11:01:12;;;;;;;0.73;0.25;;;15.20;99.90;;;;;;5079305;28;20052;-84
2023/03/23 11:03:44;;;;;;;0.13;0.13;;;15.20;99.90;;;;;;5098082;28;20050;-85
2023/03/23 11:06:18;;;;;;;0.20;0.20;;;15.30;99.90;;;;;;5097896;28;20078;-85
2023/03/23 11:08:58;;;;;;;0.20;0.20;;;15.30;99.90;;;;;;5104060;28;20082;-91
2023/03/23 11:11:31;;;;;;;0.20;0.20;;;15.40;99.90;;;;;;5097138;28;20036;-84
2023/03/23 11:14:18;;;;;;;0.25;0.25;;;15.30;99.90;;;;;;5097727;28;20047;-85
2023/03/23 11:16:52;;;;;;;0.10;0.10;;;15.40;99.90;;;;;;5097954;28;20097;-85
2023/03/23 11:19:35;;;;;;;0.10;0.10;;;15.40;99.90;;;;;;5080856;28;20039;-85
2023/03/23 11:22:04;;;;;;;0.10;0.10;;;15.60;99.90;;;;;;5097728;28;20105;-88
2023/03/23 11:24:43;;;;;;;0.10;0.10;;;15.80;99.90;;;;;;5097607;28;20044;-85
2023/03/23 11:27:10;;;;;;;0.13;0.13;;;15.80;99.90;;;;;;5080573;28;20054;-83
2023/03/23 11:29:43;;;;;;;0.68;0.43;;;15.90;99.90;;;;;;5097258;28;20422;-84
2023/03/23 11:32:12;;;;;;;0.05;0.05;;;16.00;99.90;;;;;;5115293;28;20118;-84
2023/03/23 11:34:47;;;;;;;0.30;0.30;;;16.10;99.90;;;;;;5097235;28;20052;-85
2023/03/23 11:37:31;;;;;;;0.20;0.20;;;16.00;99.90;;;;;;5097341;28;20394;-87
2023/03/23 11:40:09;;;;;;;0.08;0.00;;;16.20;99.90;;;;;;5080320;28;20040;-86
2023/03/23 11:42:42;;;;;;;0.10;0.10;;;16.10;99.90;;;;;;5080675;28;20480;-85
2023/03/23 11:45:20;;;;;;;4.25;1.20;;;15.80;99.90;;;;;;5079852;28;20054;-93
2023/03/23 11:47:49;;;;;;;0.60;0.13;;;15.40;99.90;;;;;;5098208;28;20039;-92
2023/03/23 11:50:20;;;;;;;0.03;0.03;;;15.00;99.90;;;;;;5080416;28;20379;-85
2023/03/23 11:52:58;;;;;;;0.38;0.20;;;14.70;99.90;;;;;;5080743;28;20490;-85
2023/03/23 11:55:30;;;;;;;0.10;0.10;;;14.60;99.90;;;;;;5083239;28;20189;-84
2023/03/23 11:58:01;;;;;;;0.08;0.08;;;14.40;99.90;;;;;;5080694;28;20055;-85
2023/03/23 12:00:28;;;;;;;0.13;0.13;;;14.40;99.90;;;;;;5096543;28;20048;-84
2023/03/23 12:03:12;;;;;;;;;;;14.30;99.90;;;;;;5080489;28;20050;-84
2023/03/23 12:05:47;;;;;;;0.28;0.28;;;14.30;99.90;;;;;;5096908;28;19920;-85
2023/03/23 12:08:50;;;;;;;2.05;0.57;;;14.20;99.90;;;;;;5079723;28;20055;-83
2023/03/23 12:11:44;;;;;;;0.20;0.15;;;14.20;99.90;;;;;;5079520;28;20043;-85
2023/03/23 12:14:10;;;;;;;0.17;0.17;;;14.30;99.90;;;;;;5095627;28;20134;-87
2023/03/23 12:17:13;;;;;;;0.00;0.00;;;14.40;99.90;;;;;;5095324;28;20134;-82
2023/03/23 12:19:49;;;;;;;0.00;0.00;;;14.60;99.90;;;;;;5096798;28;20052;-82
2023/03/23 12:22:21;;;;;;;1.45;0.38;;;14.90;99.90;;;;;;5079553;28;20401;-85
2023/03/23 12:25:02;;;;;;;0.20;0.20;;;15.00;99.90;;;;;;5096805;28;20510;-83
2023/03/23 12:28:18;;;;;;;0.08;0.08;;;15.00;99.90;;;;;;5096396;28;20055;-82
2023/03/23 12:31:06;;;;;;;0.10;0.10;;;15.10;99.90;;;;;;5096035;28;20043;-83
2023/03/23 12:33:53;;;;;;;0.10;0.10;;;15.00;99.90;;;;;;5079049;28;20047;-84
2023/03/23 12:36:25;;;;;;;0.10;0.10;;;15.00;99.90;;;;;;5114165;28;20393;-83
2023/03/23 12:39:04;;;;;;;0.28;0.00;;;15.20;99.90;;;;;;5096421;28;20097;-83
2023/03/23 12:41:34;;;;;;;0.10;0.10;;;15.30;99.90;;;;;;5096057;28;20051;-84
2023/03/23 12:44:06;;;;;;;0.00;0.00;;;15.20;99.90;;;;;;5096226;28;20462;-83
2023/03/23 12:46:50;;;;;;;0.95;0.20;;;15.00;99.90;;;;;;5078852;28;20047;-84
2023/03/23 12:49:19;;;;;;;0.08;0.00;;;15.00;99.90;;;;;;5095208;28;20063;-83
2023/03/23 12:52:24;;;;;;;0.10;0.10;;;15.00;99.90;;;;;;5114316;28;20039;-82
2023/03/23 12:54:57;;;;;;;0.35;0.20;;;15.00;99.90;;;;;;5094075;28;20067;-83
2023/03/23 12:57:34;;;;;;;0.10;0.10;;;15.10;99.90;;;;;;5114102;28;20053;-82
2023/03/23 13:00:23;;;;;;;0.17;0.08;;;15.60;99.90;;;;;;5096493;28;20463;-81
2023/03/23 13:03:02;;;;;;;0.30;0.30;;;15.60;99.90;;;;;;5114324;28;20084;-82
2023/03/23 13:05:46;;;;;;;0.10;0.10;;;15.80;99.90;;;;;;5095077;28;20135;-82
2023/03/23 13:08:20;;;;;;;0.60;0.50;;;16.20;99.90;;;;;;5078430;28;20500;-83
2023/03/23 13:10:48;;;;;;;0.80;0.35;;;16.40;99.90;;;;;;5095923;28;20485;-83